Hauptseite
METAR-TAF:

METAR-TAF

Flughäfen :

Flughafen O. R. Tambo

Johannesburg, Südafrika

Breite: 26-08S, Länge: 028-14E, Höhe: 1694 m

Beobachtung

Neuester Wetterbericht von vor 18 Minuten, um 13:00 UTC
Wind 13 kt aus Nordwest, variierte zwischen West/Nordwest und Nord
Temperatur 26°C
Luftfeuchtigkeit 28%
Luftdruck 1023 hPa
Sichtweite 10 km oder mehr
keine Wolken unter 1500 m und keine Kumulonimbus oder Gewitterwolken

METAR: FAOR 221300Z 32013KT 290V350 CAVOK 26/06 Q1023 NOSIG

Zeit: 15:18 (13:18 UTC)

Prognose

Neuester Wetterbericht von vor 3 Stunden und 18 Minuten, um 10:00 UTC
Gültige Prognose vom 22 um 12 UTC bis 23 um 18 UTC
Wind 10 kt aus West/Nordwest
Sichtweite 10 km oder mehr
keine Wolken unter 1500 m und keine Kumulonimbus oder Gewitterwolken
Übergehend zu
vom 22 um 18 UTC bis 22 um 20 UTC
Wind 10 kt aus West/Südwest

TAF: FAOR 221000Z 2212/2318 30010KT CAVOK TX28/2213Z TN16/2303Z BECMG 2218/2220 24010KT

Wetterbeobachtungen und Prognosen von mehr als 4000 Flughäfen (METAR und TAF Bericht).

Die verfügbaren Stationen werden durch gelbe und rote Markierungen auf der Karte dargestellt.

Führen Sie die Maus auf sie, um den Namen der Station zu sehen.

Darauf klicken, um die Beobachtung von Wetterbeobachtungen und Prognosen zu sehen.

Um die Karte zu ändern : klicken Sie auf den grünen Tasten mit einem schwarzen Kreuz Zum Vergrößern, auf den grünen Button mit einem Gedankenstrich zu verkleinern, oder auf die grünen Pfeile für benachbarte Karten.


METAR-TAF: